Time;durP1;ratioP1;P1;durP2;ratioP2;P2;SDS_P1;SDS_P2;PMS_P1;PMS_P2;Temp;Humidity;BMP_temperature;BMP_pressure;BME280_temperature;BME280_humidity;BME280_pressure;Samples;Min_cycle;Max_cycle;Signal;HPM_P1;HPM_P2
2022/10/31 00:01:22;;;;;;;11.75;5.10;;;;;;;14.96;89.01;100632.72;5034480;28;20175;-76
2022/10/31 00:03:48;;;;;;;10.52;4.85;;;;;;;15.15;88.80;100625.75;5032399;28;20536;-77
2022/10/31 00:06:14;;;;;;;12.77;4.87;;;;;;;15.19;87.73;100627.44;5034383;28;20041;-77
2022/10/31 00:08:39;;;;;;;11.43;4.95;;;;;;;15.12;88.26;100627.25;5034091;28;20764;-77
2022/10/31 00:11:08;;;;;;;10.87;4.57;;;;;;;15.54;85.83;100629.47;5034326;28;20060;-77
2022/10/31 00:13:34;;;;;;;9.38;4.28;;;;;;;15.32;86.94;100623.47;5034299;28;20264;-77
2022/10/31 00:15:59;;;;;;;8.80;4.03;;;;;;;15.32;86.76;100626.19;5034437;28;20030;-77
2022/10/31 00:18:24;;;;;;;12.03;4.50;;;;;;;15.30;87.35;100622.22;5034064;28;20729;-77
2022/10/31 00:20:58;;;;;;;9.25;4.43;;;;;;;15.23;87.46;100619.28;5033659;28;20307;-77
2022/10/31 00:23:23;;;;;;;13.63;4.65;;;;;;;15.19;87.65;100624.69;5033863;28;20483;-77
2022/10/31 00:25:49;;;;;;;8.67;3.73;;;;;;;15.37;86.65;100616.09;5015954;28;20025;-76
2022/10/31 00:28:14;;;;;;;8.17;3.70;;;;;;;15.27;87.83;100620.97;5033722;28;20323;-77
2022/10/31 00:30:39;;;;;;;10.87;3.80;;;;;;;15.04;88.81;100614.50;5034098;28;20349;-77
2022/10/31 00:33:05;;;;;;;12.17;5.07;;;;;;;15.01;88.76;100617.94;5016089;28;20347;-76
2022/10/31 00:35:30;;;;;;;10.20;4.72;;;;;;;15.22;87.24;100623.97;5033413;28;20264;-77
2022/10/31 00:37:55;;;;;;;;;;;;;;;14.87;89.53;100623.06;5034090;28;20029;-79
2022/10/31 00:40:21;;;;;;;8.67;4.40;;;;;;;14.79;89.80;100618.53;5015922;28;20337;-79
2022/10/31 00:42:46;;;;;;;;;;;;;;;14.74;90.34;100623.09;5033802;28;20131;-77
2022/10/31 00:45:11;;;;;;;10.50;4.97;;;;;;;14.95;89.77;100624.84;5033711;28;20381;-77
2022/10/31 00:47:38;;;;;;;11.68;4.22;;;;;;;15.15;87.60;100629.28;5033278;28;20049;-77
2022/10/31 00:50:05;;;;;;;10.67;4.37;;;;;;;15.12;88.11;100620.97;5033305;28;20108;-77
2022/10/31 00:52:30;;;;;;;9.75;4.20;;;;;;;15.10;88.64;100634.22;5033139;28;20521;-77
2022/10/31 00:54:56;;;;;;;11.07;5.15;;;;;;;15.17;87.69;100624.25;5033591;28;20029;-77
2022/10/31 00:57:21;;;;;;;;;;;;;;;15.10;88.58;100635.00;5032986;28;20496;-77
2022/10/31 00:59:46;;;;;;;7.77;3.63;;;;;;;14.95;89.23;100627.59;5033102;28;19928;-77
2022/10/31 01:02:11;;;;;;;10.70;4.60;;;;;;;15.04;88.94;100630.94;5015528;28;20282;-77
2022/10/31 01:04:37;;;;;;;;;;;;;;;15.09;88.72;100638.13;5033986;28;20103;-76
2022/10/31 01:07:02;;;;;;;12.30;4.33;;;;;;;15.05;88.90;100630.59;5032990;28;19922;-77
2022/10/31 01:09:27;;;;;;;;;;;;;;;15.11;88.14;100625.63;5033136;28;20021;-77
2022/10/31 01:11:53;;;;;;;8.80;3.70;;;;;;;15.48;87.24;100639.13;5033238;28;19979;-77
2022/10/31 01:14:18;;;;;;;13.63;4.18;;;;;;;15.13;88.04;100633.53;5015195;28;20268;-77
2022/10/31 01:16:43;;;;;;;;;;;;;;;15.37;87.62;100625.13;5033142;28;20068;-77
2022/10/31 01:19:09;;;;;;;10.07;4.50;;;;;;;15.43;86.73;100636.63;5032784;28;19913;-77
2022/10/31 01:21:34;;;;;;;;;;;;;;;15.31;87.62;100635.59;5015406;28;20036;-77
2022/10/31 01:24:01;;;;;;;9.30;4.07;;;;;;;15.39;87.33;100630.25;5032607;28;19909;-77
2022/10/31 01:26:30;;;;;;;12.07;4.82;;;;;;;15.34;87.63;100642.31;5015043;28;20633;-77
2022/10/31 01:29:01;;;;;;;11.30;4.03;;;;;;;15.19;87.74;100637.59;5032781;28;20489;-77
2022/10/31 01:31:29;;;;;;;11.07;4.30;;;;;;;15.02;89.06;100641.47;5015059;28;20033;-77
2022/10/31 01:33:55;;;;;;;9.27;3.85;;;;;;;14.99;89.12;100633.97;5015120;28;20026;-77
2022/10/31 01:36:21;;;;;;;12.30;3.88;;;;;;;14.98;89.19;100646.06;5032697;28;20098;-77
2022/10/31 01:38:48;;;;;;;9.88;4.05;;;;;;;14.77;90.00;100645.47;5032419;28;20025;-77
2022/10/31 01:41:14;;;;;;;;;;;;;;;14.56;91.10;100638.25;5032713;28;20484;-77
2022/10/31 01:43:51;;;;;;;10.25;3.95;;;;;;;14.81;90.39;100635.44;5032290;28;20350;-77
2022/10/31 01:46:25;;;;;;;12.70;3.95;;;;;;;15.02;89.05;100636.78;5032353;28;20482;-77
2022/10/31 01:48:54;;;;;;;9.73;4.03;;;;;;;14.98;89.14;100632.38;5032621;28;20036;-76
2022/10/31 01:51:22;;;;;;;8.90;3.50;;;;;;;15.07;88.75;100626.69;5032827;28;20025;-77
2022/10/31 01:53:51;;;;;;;8.77;4.15;;;;;;;14.96;88.72;100624.50;5032640;28;20414;-76
2022/10/31 01:56:17;;;;;;;8.70;3.83;;;;;;;14.78;89.69;100630.63;5032514;28;20025;-76
2022/10/31 01:58:45;;;;;;;;;;;;;;;14.90;89.41;100630.56;5015041;28;20509;-77
2022/10/31 02:01:12;;;;;;;7.85;3.78;;;;;;;14.94;89.16;100626.75;5032836;28;19916;-78
2022/10/31 02:03:37;;;;;;;8.25;4.07;;;;;;;14.90;89.46;100614.13;5014823;28;20052;-78
2022/10/31 02:06:08;;;;;;;11.80;5.43;;;;;;;14.86;89.18;100610.50;5014770;28;20565;-77
2022/10/31 02:08:35;;;;;;;11.75;4.28;;;;;;;14.79;89.81;100613.84;5033719;28;20099;-77
2022/10/31 02:11:01;;;;;;;10.23;3.92;;;;;;;14.77;90.18;100604.38;5036441;28;20112;-77
2022/10/31 02:13:29;;;;;;;9.15;4.72;;;;;;;14.79;89.58;100613.06;5036327;28;20129;-77
2022/10/31 02:15:58;;;;;;;10.30;3.60;;;;;;;14.52;90.75;100604.50;5036622;28;20061;-77
2022/10/31 02:18:25;;;;;;;8.45;4.07;;;;;;;14.49;91.48;100593.44;5036158;28;20032;-76
2022/10/31 02:21:15;;;;;;;11.63;4.07;;;;;;;14.90;89.60;100589.44;5018618;28;20104;-77
2022/10/31 02:24:05;;;;;;;10.63;4.55;;;;;;;14.80;90.26;100598.19;5036504;28;20118;-77
2022/10/31 02:26:52;;;;;;;13.70;4.50;;;;;;;14.60;90.51;100605.47;5036059;28;20025;-76
2022/10/31 02:29:35;;;;;;;11.43;3.90;;;;;;;14.49;91.46;100604.41;5035983;28;20067;-77
2022/10/31 02:32:15;;;;;;;11.75;5.13;;;;;;;14.50;91.68;100601.31;5018153;28;20037;-77
2022/10/31 02:35:09;;;;;;;8.95;3.92;;;;;;;14.44;91.52;100602.69;5035881;28;20088;-77
2022/10/31 02:37:45;;;;;;;11.50;4.72;;;;;;;14.56;90.75;100613.59;5036047;28;20117;-77
2022/10/31 02:40:20;;;;;;;13.15;4.70;;;;;;;14.42;91.80;100608.47;5035972;28;20120;-77
2022/10/31 02:43:17;;;;;;;9.65;4.05;;;;;;;14.21;92.85;100612.56;5035631;28;20045;-77
2022/10/31 02:45:59;;;;;;;10.27;4.47;;;;;;;14.15;93.37;100612.00;5036019;28;20037;-77
2022/10/31 02:48:27;;;;;;;11.13;4.35;;;;;;;14.14;93.38;100613.97;5035783;28;20441;-77
2022/10/31 02:50:58;;;;;;;10.10;4.07;;;;;;;14.15;93.23;100612.81;5035443;28;20036;-77
2022/10/31 02:53:23;;;;;;;10.35;3.92;;;;;;;14.17;93.88;100614.41;5035782;28;20025;-77
2022/10/31 02:56:12;;;;;;;9.50;4.15;;;;;;;14.21;93.19;100605.13;5035380;28;20025;-77
2022/10/31 02:58:42;;;;;;;11.35;4.15;;;;;;;14.51;92.29;100602.09;5034985;28;20037;-77
2022/10/31 03:01:38;;;;;;;9.55;4.13;;;;;;;14.73;90.41;100612.50;5035752;28;20024;-76
2022/10/31 03:04:12;;;;;;;9.55;3.90;;;;;;;14.65;90.70;100614.25;5004716;28;20052;-77
2022/10/31 03:07:28;;;;;;;12.88;4.45;;;;;;;14.48;91.52;100619.25;5035323;28;20071;-77
2022/10/31 03:10:13;;;;;;;10.20;3.47;;;;;;;14.37;92.09;100607.94;5031410;28;20422;-76
2022/10/31 03:13:01;;;;;;;9.65;4.35;;;;;;;14.36;92.22;100623.59;5035275;28;20029;-77
2022/10/31 03:15:32;;;;;;;12.95;5.05;;;;;;;14.20;92.51;100622.72;5035121;28;20025;-77
2022/10/31 03:18:04;;;;;;;8.05;3.97;;;;;;;14.11;93.35;100611.91;5035184;28;20025;-76
2022/10/31 03:20:40;;;;;;;10.02;4.13;;;;;;;14.29;92.80;100612.44;5034859;28;20039;-77
2022/10/31 03:23:11;;;;;;;7.75;3.47;;;;;;;13.97;93.79;100619.69;5034983;28;20021;-77
2022/10/31 03:25:37;;;;;;;10.82;3.92;;;;;;;13.89;94.60;100623.34;5034971;28;20040;-77
2022/10/31 03:28:04;;;;;;;;;;;;;;;13.83;94.97;100617.31;5035681;28;20022;-77
2022/10/31 03:30:33;;;;;;;13.33;4.57;;;;;;;14.11;93.90;100625.59;5035357;28;19909;-77
2022/10/31 03:33:12;;;;;;;12.15;4.18;;;;;;;14.19;93.17;100614.84;5035170;28;20045;-77
2022/10/31 03:35:42;;;;;;;10.65;4.38;;;;;;;13.98;93.90;100609.53;5034439;28;20179;-76
2022/10/31 03:38:09;;;;;;;18.67;5.32;;;;;;;13.83;94.63;100613.78;5034671;28;20029;-77
2022/10/31 03:40:37;;;;;;;10.43;4.15;;;;;;;13.77;95.34;100617.88;5035121;28;20033;-77
2022/10/31 03:43:12;;;;;;;9.85;3.33;;;;;;;13.66;95.72;100614.03;5034596;28;20049;-76
2022/10/31 03:45:45;;;;;;;10.18;4.25;;;;;;;13.57;96.36;100597.72;5034803;28;20032;-76
2022/10/31 03:48:13;;;;;;;11.35;4.70;;;;;;;13.48;96.76;100614.28;5034551;28;20390;-77
2022/10/31 03:50:50;;;;;;;12.25;3.90;;;;;;;13.43;96.87;100616.41;5034597;28;20078;-77
2022/10/31 03:53:26;;;;;;;8.52;3.45;;;;;;;13.41;97.59;100616.75;5016732;28;20111;-76
2022/10/31 03:56:06;;;;;;;11.73;3.93;;;;;;;13.44;97.05;100612.56;5016901;28;20057;-76
2022/10/31 03:58:42;;;;;;;9.45;3.95;;;;;;;13.41;97.08;100610.50;5034410;28;20479;-76
2022/10/31 04:01:13;;;;;;;12.98;4.28;;;;;;;13.33;97.17;100614.16;5034713;28;20367;-76
2022/10/31 04:03:39;;;;;;;12.52;3.97;;;;;;;13.14;97.51;100618.19;5016511;28;20053;-77
2022/10/31 04:06:09;;;;;;;9.77;3.85;;;;;;;13.02;99.06;100614.63;5034522;28;20367;-77
2022/10/31 04:08:44;;;;;;;7.30;3.70;;;;;;;13.03;99.46;100619.75;5016396;28;20112;-76
2022/10/31 04:11:12;;;;;;;11.38;5.20;;;;;;;13.01;99.28;100618.50;5034201;28;20394;-77
2022/10/31 04:13:39;;;;;;;10.38;4.00;;;;;;;13.02;99.65;100615.44;5033945;28;20106;-77
2022/10/31 04:16:06;;;;;;;10.77;3.88;;;;;;;13.02;99.37;100606.44;5016420;28;20032;-77
2022/10/31 04:18:31;;;;;;;12.35;4.13;;;;;;;13.07;99.05;100607.00;5033290;28;20037;-77
2022/10/31 04:21:15;;;;;;;11.23;3.40;;;;;;;13.07;99.21;100607.00;5016133;28;20025;-77
2022/10/31 04:23:40;;;;;;;11.50;4.75;;;;;;;13.07;99.08;100612.47;5034317;28;20033;-77
2022/10/31 04:26:05;;;;;;;8.53;3.97;;;;;;;13.08;99.36;100610.53;5033772;28;20087;-77
2022/10/31 04:28:32;;;;;;;;;;;;;;;13.39;97.48;100608.09;5034175;28;20482;-77
2022/10/31 04:30:57;;;;;;;8.45;3.78;;;;;;;13.55;95.99;100600.81;5033487;28;19917;-77
2022/10/31 04:33:23;;;;;;;10.07;4.27;;;;;;;13.35;96.57;100607.19;5033742;28;20029;-77
2022/10/31 04:35:48;;;;;;;;;;;;;;;13.45;96.42;100609.50;5033878;28;20021;-77
2022/10/31 04:38:13;;;;;;;10.60;3.93;;;;;;;13.33;96.63;100609.47;5033764;28;20377;-77
2022/10/31 04:40:39;;;;;;;10.27;4.87;;;;;;;13.21;97.63;100607.50;5033380;28;20268;-77
2022/10/31 04:43:04;;;;;;;;;;;;;;;13.15;97.97;100602.59;5033945;28;20048;-77
2022/10/31 04:45:29;;;;;;;10.37;3.60;;;;;;;13.10;97.86;100611.81;5033400;28;19989;-77
2022/10/31 04:47:54;;;;;;;9.90;3.70;;;;;;;13.45;96.31;100601.28;5032905;28;20299;-77
2022/10/31 04:50:20;;;;;;;;;;;;;;;13.38;96.30;100600.22;5016120;28;20390;-77
2022/10/31 04:52:46;;;;;;;9.20;3.27;;;;;;;13.20;96.73;100591.44;5032942;28;19909;-77
2022/10/31 04:55:12;;;;;;;8.57;4.07;;;;;;;13.08;97.71;100591.41;5032970;28;20371;-76
2022/10/31 04:57:46;;;;;;;8.95;4.07;;;;;;;13.03;97.85;100592.44;5032959;28;20509;-76
2022/10/31 05:00:13;;;;;;;11.55;3.75;;;;;;;13.15;97.96;100594.38;5033323;28;20056;-77
2022/10/31 05:02:46;;;;;;;12.77;4.32;;;;;;;13.23;97.11;100594.28;5032664;28;20394;-77
2022/10/31 05:05:13;;;;;;;11.30;4.93;;;;;;;13.22;96.89;100591.91;5033352;28;20076;-77
2022/10/31 05:07:42;;;;;;;12.48;3.65;;;;;;;13.16;97.24;100593.25;5015435;28;20025;-77
2022/10/31 05:10:13;;;;;;;8.15;4.18;;;;;;;13.14;97.42;100584.59;5033004;28;20029;-78
2022/10/31 05:12:46;;;;;;;10.43;3.67;;;;;;;13.17;97.35;100583.91;5015112;28;20055;-79
2022/10/31 05:15:12;;;;;;;8.75;3.40;;;;;;;13.23;97.04;100585.31;5032507;28;20021;-77
2022/10/31 05:17:37;;;;;;;9.90;4.10;;;;;;;13.20;96.91;100584.03;5032993;28;20053;-77
2022/10/31 05:20:02;;;;;;;16.17;5.13;;;;;;;13.13;97.47;100583.78;5014867;28;20268;-77
2022/10/31 05:22:29;;;;;;;10.63;5.05;;;;;;;13.11;97.72;100577.06;5032539;28;20326;-77
2022/10/31 05:24:56;;;;;;;12.20;5.10;;;;;;;13.15;97.59;100570.56;5033118;28;20025;-77
2022/10/31 05:27:21;;;;;;;11.30;4.75;;;;;;;13.12;97.23;100570.47;5032984;28;20029;-77
2022/10/31 05:29:46;;;;;;;19.77;5.70;;;;;;;13.08;97.40;100564.06;5032324;28;20385;-77
2022/10/31 05:32:12;;;;;;;11.57;4.83;;;;;;;13.13;97.11;100572.84;5032425;28;20136;-77
2022/10/31 05:34:37;;;;;;;9.50;4.40;;;;;;;13.10;97.38;100565.34;5014769;28;20502;-76
2022/10/31 05:37:02;;;;;;;10.55;4.22;;;;;;;13.02;97.71;100568.16;5032614;28;20072;-77
2022/10/31 05:39:28;;;;;;;10.53;3.80;;;;;;;13.01;97.89;100564.63;5032461;28;20414;-77
2022/10/31 05:41:53;;;;;;;9.32;4.20;;;;;;;13.05;97.60;100565.53;5032475;28;20133;-78
2022/10/31 05:44:18;;;;;;;10.10;4.40;;;;;;;12.92;98.14;100572.13;5032386;28;20505;-78
2022/10/31 05:46:46;;;;;;;10.20;4.37;;;;;;;12.97;97.57;100573.88;5014774;28;20359;-76
2022/10/31 05:49:11;;;;;;;10.02;3.90;;;;;;;12.85;98.19;100564.50;5032471;28;20021;-77
2022/10/31 05:51:36;;;;;;;7.90;3.77;;;;;;;12.79;98.66;100570.53;5032640;28;20072;-77
2022/10/31 05:54:02;;;;;;;11.20;4.15;;;;;;;12.76;98.83;100571.19;5031549;28;20037;-76
2022/10/31 05:56:27;;;;;;;9.13;3.60;;;;;;;12.79;98.61;100563.13;5032181;28;20037;-77
2022/10/31 05:58:52;;;;;;;8.53;3.80;;;;;;;12.70;99.21;100565.13;5032850;28;20390;-77
2022/10/31 06:01:17;;;;;;;22.60;3.70;;;;;;;12.67;99.58;100565.03;5032409;28;20361;-77
2022/10/31 06:03:43;;;;;;;12.07;4.63;;;;;;;12.70;99.52;100558.88;5014334;28;20127;-77
2022/10/31 06:06:08;;;;;;;12.80;5.53;;;;;;;12.67;99.92;100565.81;5032272;28;20802;-77
2022/10/31 06:08:33;;;;;;;12.37;5.20;;;;;;;12.64;99.96;100555.56;5031853;28;20029;-76
2022/10/31 06:10:59;;;;;;;9.67;4.53;;;;;;;12.67;99.88;100557.63;5032448;28;20272;-77
2022/10/31 06:13:24;;;;;;;10.00;4.10;;;;;;;12.60;100.00;100560.91;5032554;28;20033;-77
2022/10/31 06:15:49;;;;;;;11.30;4.87;;;;;;;12.61;100.00;100556.25;5014657;28;20033;-77
2022/10/31 06:18:16;;;;;;;7.83;4.10;;;;;;;12.60;100.00;100551.94;5032142;28;20485;-80
2022/10/31 06:20:41;;;;;;;11.25;3.85;;;;;;;12.63;100.00;100565.72;5014593;28;20283;-81
2022/10/31 06:23:07;;;;;;;12.60;5.20;;;;;;;12.69;100.00;100566.28;5031922;28;20033;-80
2022/10/31 06:25:33;;;;;;;8.35;4.28;;;;;;;12.68;99.86;100561.94;5031465;28;20072;-81
2022/10/31 06:27:59;;;;;;;9.70;4.03;;;;;;;12.65;100.00;100563.44;5032068;28;20479;-81
2022/10/31 06:30:25;;;;;;;8.95;4.43;;;;;;;12.72;99.50;100557.41;5031890;28;20136;-81
2022/10/31 06:32:51;;;;;;;10.93;4.82;;;;;;;12.72;99.54;100562.88;5014744;28;20486;-81
2022/10/31 06:35:17;;;;;;;10.35;4.15;;;;;;;12.63;100.00;100562.97;5031793;28;20088;-80
2022/10/31 06:37:42;;;;;;;;;;;;;;;12.61;99.97;100565.25;5032459;28;20028;-81
2022/10/31 06:40:08;;;;;;;9.95;3.40;;;;;;;12.63;100.00;100564.91;5032124;28;20301;-80
2022/10/31 06:42:33;;;;;;;8.38;3.85;;;;;;;12.71;100.00;100571.41;5031870;28;20050;-80
2022/10/31 06:44:58;;;;;;;11.60;5.50;;;;;;;12.70;99.76;100558.88;5032255;28;20033;-80
2022/10/31 06:47:25;;;;;;;13.10;4.20;;;;;;;12.72;99.79;100551.13;4997857;28;20368;-80
2022/10/31 06:49:51;;;;;;;8.38;3.72;;;;;;;12.68;99.75;100561.94;5031870;28;20315;-81
2022/10/31 06:52:16;;;;;;;10.67;4.33;;;;;;;12.83;99.25;100568.72;5031783;28;20076;-80
2022/10/31 06:54:41;;;;;;;11.30;4.80;;;;;;;12.87;99.09;100570.41;5033707;28;20136;-81
2022/10/31 06:57:06;;;;;;;;;;;;;;;12.88;99.15;100573.94;5035777;28;20505;-81
2022/10/31 06:59:32;;;;;;;16.43;4.90;;;;;;;13.01;98.48;100580.25;5035096;28;19955;-81
2022/10/31 07:01:58;;;;;;;11.13;4.78;;;;;;;13.05;97.95;100581.16;5035315;28;20417;-80
2022/10/31 07:04:24;;;;;;;14.00;5.82;;;;;;;13.08;97.68;100580.47;5035692;28;20091;-81
2022/10/31 07:06:51;;;;;;;12.85;4.93;;;;;;;13.04;97.79;100585.81;5018300;28;20029;-81
2022/10/31 07:09:17;;;;;;;11.77;5.32;;;;;;;12.99;98.26;100577.06;5035510;28;20026;-80
2022/10/31 07:11:42;;;;;;;11.70;4.77;;;;;;;12.97;98.21;100584.78;5036121;28;20028;-80
2022/10/31 07:14:08;;;;;;;11.52;4.45;;;;;;;13.00;98.49;100589.59;5037589;28;20264;-80
2022/10/31 07:16:33;;;;;;;14.23;4.60;;;;;;;13.02;97.93;100576.38;5037457;28;20386;-81
2022/10/31 07:19:09;;;;;;;11.98;5.47;;;;;;;13.00;98.19;100579.44;5020280;28;20120;-81
2022/10/31 07:21:34;;;;;;;12.95;4.85;;;;;;;13.00;98.35;100584.13;5041080;28;20022;-81
2022/10/31 07:23:59;;;;;;;13.33;5.40;;;;;;;13.03;98.30;100577.97;5036402;28;20055;-80
2022/10/31 07:26:25;;;;;;;16.97;5.83;;;;;;;13.00;98.61;100584.91;5037054;28;20303;-80
2022/10/31 07:28:51;;;;;;;12.73;5.90;;;;;;;13.03;98.26;100581.50;5018855;28;20075;-81
2022/10/31 07:31:21;;;;;;;13.70;5.67;;;;;;;13.14;97.91;100581.84;5036315;28;20037;-80
2022/10/31 07:33:46;;;;;;;13.60;6.53;;;;;;;13.18;97.50;100586.31;5016953;28;20430;-79
2022/10/31 07:36:12;;;;;;;13.82;5.35;;;;;;;13.28;97.32;100578.81;5034997;28;20515;-80
2022/10/31 07:38:37;;;;;;;16.15;6.72;;;;;;;13.24;97.35;100584.16;5034944;28;20128;-81
2022/10/31 07:41:02;;;;;;;14.07;5.47;;;;;;;13.29;97.21;100583.16;5035427;28;20029;-80
2022/10/31 07:43:27;;;;;;;15.00;6.00;;;;;;;13.29;97.00;100562.06;5034686;28;20288;-81
2022/10/31 07:45:53;;;;;;;;;;;;;;;13.37;97.00;100577.56;5035595;28;20035;-81
2022/10/31 07:48:18;;;;;;;12.02;5.90;;;;;;;13.38;96.55;100592.81;5034649;28;19913;-80
2022/10/31 07:50:44;;;;;;;15.20;5.53;;;;;;;13.31;96.44;100578.13;5016954;28;20025;-81
2022/10/31 07:53:12;;;;;;;14.60;4.93;;;;;;;13.40;97.24;100581.53;5016720;28;20041;-82
2022/10/31 07:55:38;;;;;;;13.88;5.65;;;;;;;13.47;96.10;100571.63;5016704;28;20032;-80
2022/10/31 07:58:06;;;;;;;13.23;5.65;;;;;;;13.58;96.25;100571.94;5016842;28;20049;-80
2022/10/31 08:00:33;;;;;;;13.23;5.80;;;;;;;13.46;95.64;100575.53;5034350;28;20033;-79
2022/10/31 08:03:09;;;;;;;15.05;5.88;;;;;;;13.42;96.37;100580.06;5033991;28;20425;-80
2022/10/31 08:05:35;;;;;;;9.85;5.28;;;;;;;13.29;96.58;100588.63;5033885;28;20029;-80
2022/10/31 08:08:04;;;;;;;14.55;5.45;;;;;;;13.21;96.84;100584.84;5034203;28;20028;-80
2022/10/31 08:10:29;;;;;;;16.58;7.45;;;;;;;13.15;97.33;100595.19;5034161;28;20037;-80
2022/10/31 08:12:58;;;;;;;13.07;5.63;;;;;;;13.20;97.50;100594.97;5016221;28;20100;-80
2022/10/31 08:15:24;;;;;;;21.25;6.20;;;;;;;13.24;96.88;100595.09;5034199;28;20486;-80
2022/10/31 08:17:50;;;;;;;11.30;4.70;;;;;;;13.18;96.63;100596.47;5016337;28;20502;-80
2022/10/31 08:20:15;;;;;;;15.50;5.45;;;;;;;13.09;96.89;100593.00;5034057;28;20033;-81
2022/10/31 08:22:41;;;;;;;14.43;5.72;;;;;;;13.03;97.15;100588.91;5035142;28;20029;-80
2022/10/31 08:25:06;;;;;;;12.60;6.15;;;;;;;13.01;97.42;100591.97;5036559;28;20042;-80
2022/10/31 08:27:32;;;;;;;13.07;5.18;;;;;;;13.04;97.25;100593.22;5034051;28;20026;-80
2022/10/31 08:29:58;;;;;;;12.95;4.97;;;;;;;13.07;97.71;100587.88;5016371;28;20036;-81
2022/10/31 08:32:23;;;;;;;;;;;;;;;13.08;97.50;100596.88;5034336;28;20025;-80
2022/10/31 08:34:48;;;;;;;12.40;5.65;;;;;;;13.18;97.54;100591.00;5015861;28;20369;-80
2022/10/31 08:37:19;;;;;;;16.92;6.47;;;;;;;13.35;97.30;100592.72;5015474;28;20112;-81
2022/10/31 08:39:46;;;;;;;18.23;6.85;;;;;;;13.50;96.09;100581.88;5033276;28;20504;-80
2022/10/31 08:42:11;;;;;;;18.50;7.22;;;;;;;13.59;95.25;100578.22;5033041;28;20049;-79
2022/10/31 08:44:37;;;;;;;22.83;10.30;;;;;;;13.73;94.40;100576.72;5033361;28;20548;-77
2022/10/31 08:47:03;;;;;;;16.88;7.18;;;;;;;13.92;93.83;100573.38;5033326;28;20544;-77
2022/10/31 08:49:28;;;;;;;;;;;;;;;14.08;92.46;100578.94;5033461;28;20026;-77
2022/10/31 08:51:53;;;;;;;18.37;7.07;;;;;;;14.14;92.14;100577.56;5033394;28;20117;-77
2022/10/31 08:54:18;;;;;;;;;;;;;;;14.21;91.63;100566.00;5015471;28;20512;-77
2022/10/31 08:56:44;;;;;;;20.58;7.65;;;;;;;14.30;91.65;100564.72;5033083;28;19909;-77
2022/10/31 08:59:09;;;;;;;;;;;;;;;14.40;90.93;100561.47;5033544;28;20079;-77
2022/10/31 09:01:35;;;;;;;14.90;5.93;;;;;;;14.57;90.82;100557.66;5033547;28;19913;-77
2022/10/31 09:04:00;;;;;;;;;;;;;;;14.64;89.86;100552.38;5015372;28;20080;-78
2022/10/31 09:06:27;;;;;;;17.60;6.75;;;;;;;14.71;89.45;100555.28;5032995;28;19998;-76
2022/10/31 09:08:52;;;;;;;17.67;7.97;;;;;;;14.62;89.14;100548.41;5032651;28;20033;-77
2022/10/31 09:11:18;;;;;;;20.67;7.47;;;;;;;14.54;89.57;100555.63;5033071;28;20029;-78
2022/10/31 09:13:43;;;;;;;;;;;;;;;14.55;89.67;100548.97;5033232;28;20052;-78
2022/10/31 09:16:08;;;;;;;17.10;6.67;;;;;;;14.80;88.49;100555.13;5033097;28;19909;-77
2022/10/31 09:18:35;;;;;;;19.50;7.33;;;;;;;14.90;88.45;100554.59;5032308;28;20278;-78
2022/10/31 09:21:01;;;;;;;18.52;7.75;;;;;;;15.02;87.81;100550.97;5014840;28;20477;-78
2022/10/31 09:23:26;;;;;;;;;;;;;;;15.02;87.64;100545.50;5032824;28;20040;-78
2022/10/31 09:25:53;;;;;;;19.45;6.85;;;;;;;15.17;87.45;100546.66;5032631;28;19909;-78
2022/10/31 09:28:21;;;;;;;13.82;6.55;;;;;;;15.24;87.16;100541.31;5032649;28;20128;-78
2022/10/31 09:30:48;;;;;;;17.80;7.75;;;;;;;15.22;87.53;100549.13;5014677;28;20111;-78
2022/10/31 09:33:14;;;;;;;22.52;7.00;;;;;;;15.23;87.27;100543.28;5014939;28;20479;-78
2022/10/31 09:35:40;;;;;;;16.52;7.60;;;;;;;15.28;87.12;100537.53;5032231;28;20104;-78
2022/10/31 09:38:11;;;;;;;18.17;7.55;;;;;;;15.37;86.24;100523.59;4998213;28;20133;-78
2022/10/31 09:40:40;;;;;;;24.08;8.13;;;;;;;15.34;86.09;100527.88;5014682;28;20398;-77
2022/10/31 09:43:42;;;;;;;19.05;7.43;;;;;;;15.42;85.82;100528.03;5032174;28;20042;-78
2022/10/31 09:46:13;;;;;;;23.10;8.35;;;;;;;15.52;85.04;100524.72;5006697;28;20469;-77
2022/10/31 09:48:48;;;;;;;14.75;7.50;;;;;;;15.61;85.64;100514.38;5014611;28;20022;-78
2022/10/31 09:51:20;;;;;;;20.02;8.30;;;;;;;15.42;84.91;100512.34;5032325;28;20025;-78
2022/10/31 09:54:00;;;;;;;16.25;7.45;;;;;;;15.47;85.82;100512.09;5014073;28;20057;-78
2022/10/31 09:56:26;;;;;;;21.40;9.77;;;;;;;15.48;85.16;100510.16;5032005;28;20030;-78
2022/10/31 09:58:55;;;;;;;17.23;8.25;;;;;;;15.46;85.43;100515.19;5032606;28;20367;-78
2022/10/31 10:01:45;;;;;;;20.02;7.65;;;;;;;15.34;85.30;100503.16;5031981;28;20435;-76
2022/10/31 10:04:52;;;;;;;20.98;8.90;;;;;;;15.34;85.79;100503.16;5032044;28;20021;-76
2022/10/31 10:07:26;;;;;;;22.60;8.45;;;;;;;15.44;85.66;100496.31;5023860;28;20087;-77
2022/10/31 10:09:52;;;;;;;19.15;7.50;;;;;;;15.53;85.30;100494.19;5031811;28;20021;-77
2022/10/31 10:12:26;;;;;;;19.63;8.35;;;;;;;15.52;84.89;100491.81;5032024;28;20044;-77
2022/10/31 10:14:57;;;;;;;19.67;8.35;;;;;;;15.75;83.92;100494.66;5031782;28;20033;-77
2022/10/31 10:17:31;;;;;;;19.90;7.88;;;;;;;15.83;83.61;100485.44;5013937;28;20105;-77
2022/10/31 10:19:56;;;;;;;17.35;8.27;;;;;;;15.86;83.40;100488.25;5032017;28;20371;-77
2022/10/31 10:22:50;;;;;;;16.80;7.03;;;;;;;15.91;84.02;100500.88;5032087;28;20029;-77
2022/10/31 10:25:23;;;;;;;21.65;9.30;;;;;;;15.95;83.13;100494.31;5029958;28;20153;-77
2022/10/31 10:28:25;;;;;;;17.50;7.32;;;;;;;15.92;82.93;100495.03;5014249;28;20034;-77
2022/10/31 10:30:59;;;;;;;17.25;7.30;;;;;;;15.88;83.30;100485.94;5035575;28;20108;-77
2022/10/31 10:33:32;;;;;;;24.48;8.40;;;;;;;15.78;83.32;100481.00;5035629;28;20022;-77
2022/10/31 10:36:10;;;;;;;20.85;7.80;;;;;;;15.68;83.95;100470.63;5035820;28;20025;-77
2022/10/31 10:39:01;;;;;;;19.25;7.70;;;;;;;15.80;84.00;100467.75;5035887;28;20021;-77
2022/10/31 10:41:31;;;;;;;18.98;7.60;;;;;;;15.99;82.77;100468.88;5001030;28;20037;-77
2022/10/31 10:43:57;;;;;;;20.48;8.68;;;;;;;16.08;82.82;100463.94;5035469;28;20091;-78
2022/10/31 10:49:43;;;;;;;20.20;8.18;;;;;;;16.08;82.55;100456.50;5035479;28;20552;-78
2022/10/31 10:52:21;;;;;;;20.63;7.65;;;;;;;16.19;81.96;100441.03;5017459;28;20108;-77
2022/10/31 10:55:06;;;;;;;18.65;6.90;;;;;;;16.13;82.43;100445.25;5035411;28;20029;-77
2022/10/31 10:57:54;;;;;;;19.13;8.13;;;;;;;16.17;82.40;100442.56;5035564;28;20429;-78
2022/10/31 11:00:23;;;;;;;18.42;8.00;;;;;;;16.05;82.71;100437.22;5035222;28;20029;-77
2022/10/31 11:02:49;;;;;;;16.58;6.78;;;;;;;16.04;82.95;100427.38;5035106;28;20029;-77
2022/10/31 11:05:24;;;;;;;20.02;8.65;;;;;;;16.07;82.74;100429.41;5035035;28;20079;-77
2022/10/31 11:07:49;;;;;;;17.60;7.25;;;;;;;16.09;83.64;100421.59;5017321;28;20033;-77
2022/10/31 11:10:16;;;;;;;14.77;6.72;;;;;;;16.11;82.93;100411.03;5035185;28;20037;-77
2022/10/31 11:12:44;;;;;;;19.38;6.80;;;;;;;16.17;82.86;100395.84;5035353;28;20079;-77
2022/10/31 11:15:21;;;;;;;19.30;7.03;;;;;;;16.22;82.39;100396.34;5035052;28;20446;-77
2022/10/31 11:17:52;;;;;;;21.25;8.23;;;;;;;16.34;82.12;100395.38;5035352;28;20021;-77
2022/10/31 11:20:18;;;;;;;18.00;7.22;;;;;;;16.35;81.66;100385.97;5034977;28;20119;-77
2022/10/31 11:22:45;;;;;;;16.50;6.35;;;;;;;16.33;82.17;100384.75;5034853;28;20033;-78
2022/10/31 11:25:24;;;;;;;18.40;6.65;;;;;;;16.33;82.47;100380.03;5017328;28;20037;-79
2022/10/31 11:28:04;;;;;;;17.00;6.55;;;;;;;16.61;81.07;100370.66;5035607;28;20037;-79
2022/10/31 11:30:35;;;;;;;16.50;6.70;;;;;;;16.66;81.20;100373.91;5017150;28;20025;-77
2022/10/31 11:33:00;;;;;;;15.82;6.60;;;;;;;16.64;80.98;100378.19;5034836;28;20127;-77
2022/10/31 11:35:26;;;;;;;;;;;;;;;16.82;80.82;100382.81;5017330;28;20425;-78
2022/10/31 11:37:54;;;;;;;14.60;6.40;;;;;;;16.88;80.05;100380.53;5034762;28;19909;-79